sensor_id;sensor_type;location;lat;lon;timestamp;temperature;humidity
23550;DHT22;11953;49.010;8.608;2022-09-23T00:01:19;10.50;99.90
23550;DHT22;11953;49.010;8.608;2022-09-23T00:04:05;10.60;99.90
23550;DHT22;11953;49.010;8.608;2022-09-23T00:06:52;10.50;99.90
23550;DHT22;11953;49.010;8.608;2022-09-23T00:09:38;10.30;99.90
23550;DHT22;11953;49.010;8.608;2022-09-23T00:12:26;10.30;99.90
23550;DHT22;11953;49.010;8.608;2022-09-23T00:15:12;10.30;99.90
23550;DHT22;11953;49.010;8.608;2022-09-23T00:17:59;10.30;99.90
23550;DHT22;11953;49.010;8.608;2022-09-23T00:20:45;10.20;99.90
23550;DHT22;11953;49.010;8.608;2022-09-23T00:23:32;10.30;99.90
23550;DHT22;11953;49.010;8.608;2022-09-23T00:26:20;10.40;99.90
23550;DHT22;11953;49.010;8.608;2022-09-23T00:29:08;10.40;99.90
23550;DHT22;11953;49.010;8.608;2022-09-23T00:31:55;10.20;99.90
23550;DHT22;11953;49.010;8.608;2022-09-23T00:34:42;10.20;99.90
23550;DHT22;11953;49.010;8.608;2022-09-23T00:37:29;10.30;99.90
23550;DHT22;11953;49.010;8.608;2022-09-23T00:40:16;10.30;99.90
23550;DHT22;11953;49.010;8.608;2022-09-23T00:43:02;10.30;99.90
23550;DHT22;11953;49.010;8.608;2022-09-23T00:45:50;10.40;99.90
23550;DHT22;11953;49.010;8.608;2022-09-23T00:48:39;10.40;99.90
23550;DHT22;11953;49.010;8.608;2022-09-23T00:51:30;10.60;99.90
23550;DHT22;11953;49.010;8.608;2022-09-23T00:54:20;10.50;99.90
23550;DHT22;11953;49.010;8.608;2022-09-23T00:57:08;10.50;99.90
23550;DHT22;11953;49.010;8.608;2022-09-23T00:59:56;10.50;99.90
23550;DHT22;11953;49.010;8.608;2022-09-23T01:02:44;10.50;99.90
23550;DHT22;11953;49.010;8.608;2022-09-23T01:05:32;10.50;99.90
23550;DHT22;11953;49.010;8.608;2022-09-23T01:08:21;10.40;99.90
23550;DHT22;11953;49.010;8.608;2022-09-23T01:11:16;10.50;99.90
23550;DHT22;11953;49.010;8.608;2022-09-23T01:14:16;10.50;99.90
23550;DHT22;11953;49.010;8.608;2022-09-23T01:17:12;10.60;99.90
23550;DHT22;11953;49.010;8.608;2022-09-23T01:20:47;10.50;99.90
23550;DHT22;11953;49.010;8.608;2022-09-23T01:24:00;10.40;99.90
23550;DHT22;11953;49.010;8.608;2022-09-23T01:26:59;10.40;99.90
23550;DHT22;11953;49.010;8.608;2022-09-23T01:30:10;10.50;99.90
23550;DHT22;11953;49.010;8.608;2022-09-23T01:33:04;10.50;99.90
23550;DHT22;11953;49.010;8.608;2022-09-23T01:36:06;10.50;99.90
23550;DHT22;11953;49.010;8.608;2022-09-23T01:38:57;10.40;99.90
23550;DHT22;11953;49.010;8.608;2022-09-23T01:41:51;10.40;99.90
23550;DHT22;11953;49.010;8.608;2022-09-23T01:44:43;10.40;99.90
23550;DHT22;11953;49.010;8.608;2022-09-23T01:47:35;10.30;99.90
23550;DHT22;11953;49.010;8.608;2022-09-23T01:50:27;10.10;99.90
23550;DHT22;11953;49.010;8.608;2022-09-23T01:53:36;10.00;99.90
23550;DHT22;11953;49.010;8.608;2022-09-23T01:56:27;9.80;99.90
23550;DHT22;11953;49.010;8.608;2022-09-23T01:59:18;9.80;99.90
23550;DHT22;11953;49.010;8.608;2022-09-23T02:02:09;9.90;99.90
23550;DHT22;11953;49.010;8.608;2022-09-23T02:05:00;9.80;99.90
23550;DHT22;11953;49.010;8.608;2022-09-23T02:07:52;9.90;99.90
23550;DHT22;11953;49.010;8.608;2022-09-23T02:10:46;9.90;99.90
23550;DHT22;11953;49.010;8.608;2022-09-23T02:13:39;9.80;99.90
23550;DHT22;11953;49.010;8.608;2022-09-23T02:16:30;9.80;99.90
23550;DHT22;11953;49.010;8.608;2022-09-23T02:19:23;9.60;99.90
23550;DHT22;11953;49.010;8.608;2022-09-23T02:22:15;9.50;99.90
23550;DHT22;11953;49.010;8.608;2022-09-23T02:25:06;9.40;99.90
23550;DHT22;11953;49.010;8.608;2022-09-23T02:27:56;9.30;99.90
23550;DHT22;11953;49.010;8.608;2022-09-23T02:30:47;9.40;99.90
23550;DHT22;11953;49.010;8.608;2022-09-23T02:33:40;9.30;99.90
23550;DHT22;11953;49.010;8.608;2022-09-23T02:36:31;9.30;99.90
23550;DHT22;11953;49.010;8.608;2022-09-23T02:39:22;9.30;99.90
23550;DHT22;11953;49.010;8.608;2022-09-23T02:42:17;9.20;99.90
23550;DHT22;11953;49.010;8.608;2022-09-23T02:45:05;9.00;99.90
23550;DHT22;11953;49.010;8.608;2022-09-23T02:47:57;8.80;99.90
23550;DHT22;11953;49.010;8.608;2022-09-23T02:50:47;8.70;99.90
23550;DHT22;11953;49.010;8.608;2022-09-23T02:53:33;8.40;99.90
23550;DHT22;11953;49.010;8.608;2022-09-23T02:56:21;8.30;99.90
23550;DHT22;11953;49.010;8.608;2022-09-23T02:59:09;8.20;99.90
23550;DHT22;11953;49.010;8.608;2022-09-23T03:02:14;8.20;99.90
23550;DHT22;11953;49.010;8.608;2022-09-23T03:05:09;8.20;99.90
23550;DHT22;11953;49.010;8.608;2022-09-23T03:08:12;8.20;99.90
23550;DHT22;11953;49.010;8.608;2022-09-23T03:11:05;8.10;99.90
23550;DHT22;11953;49.010;8.608;2022-09-23T03:14:04;8.10;99.90
23550;DHT22;11953;49.010;8.608;2022-09-23T03:16:58;8.10;99.90
23550;DHT22;11953;49.010;8.608;2022-09-23T03:19:52;8.30;99.90
23550;DHT22;11953;49.010;8.608;2022-09-23T03:22:43;8.40;99.90
23550;DHT22;11953;49.010;8.608;2022-09-23T03:25:35;8.70;99.90
23550;DHT22;11953;49.010;8.608;2022-09-23T03:28:23;8.80;99.90
23550;DHT22;11953;49.010;8.608;2022-09-23T03:31:12;8.90;99.90
23550;DHT22;11953;49.010;8.608;2022-09-23T03:34:04;9.10;99.90
23550;DHT22;11953;49.010;8.608;2022-09-23T03:36:54;9.20;99.90
23550;DHT22;11953;49.010;8.608;2022-09-23T03:39:47;9.30;99.90
23550;DHT22;11953;49.010;8.608;2022-09-23T03:42:34;9.40;99.90
23550;DHT22;11953;49.010;8.608;2022-09-23T03:45:25;9.50;99.90
23550;DHT22;11953;49.010;8.608;2022-09-23T03:48:12;9.60;99.90
23550;DHT22;11953;49.010;8.608;2022-09-23T03:51:12;9.50;99.90
23550;DHT22;11953;49.010;8.608;2022-09-23T03:54:04;9.60;99.90
23550;DHT22;11953;49.010;8.608;2022-09-23T03:56:51;9.60;99.90
23550;DHT22;11953;49.010;8.608;2022-09-23T03:59:41;9.60;99.90
23550;DHT22;11953;49.010;8.608;2022-09-23T04:02:28;9.70;99.90
23550;DHT22;11953;49.010;8.608;2022-09-23T04:05:14;9.70;99.90
23550;DHT22;11953;49.010;8.608;2022-09-23T04:08:03;9.60;99.90
23550;DHT22;11953;49.010;8.608;2022-09-23T04:10:49;9.70;99.90
23550;DHT22;11953;49.010;8.608;2022-09-23T04:13:39;9.70;99.90
23550;DHT22;11953;49.010;8.608;2022-09-23T04:16:25;9.70;99.90
23550;DHT22;11953;49.010;8.608;2022-09-23T04:19:13;9.50;99.90
23550;DHT22;11953;49.010;8.608;2022-09-23T04:22:00;9.30;99.90
23550;DHT22;11953;49.010;8.608;2022-09-23T04:24:48;9.20;99.90
23550;DHT22;11953;49.010;8.608;2022-09-23T04:27:34;9.00;99.90
23550;DHT22;11953;49.010;8.608;2022-09-23T04:30:22;8.90;99.90
23550;DHT22;11953;49.010;8.608;2022-09-23T04:33:09;8.90;99.90
23550;DHT22;11953;49.010;8.608;2022-09-23T04:35:56;8.90;99.90
23550;DHT22;11953;49.010;8.608;2022-09-23T04:38:42;8.90;99.90
23550;DHT22;11953;49.010;8.608;2022-09-23T04:41:30;8.90;99.90
23550;DHT22;11953;49.010;8.608;2022-09-23T04:44:17;9.00;99.90
23550;DHT22;11953;49.010;8.608;2022-09-23T04:47:05;9.00;99.90
23550;DHT22;11953;49.010;8.608;2022-09-23T04:49:52;8.90;99.90
23550;DHT22;11953;49.010;8.608;2022-09-23T04:52:44;9.00;99.90
23550;DHT22;11953;49.010;8.608;2022-09-23T04:55:31;9.00;99.90
23550;DHT22;11953;49.010;8.608;2022-09-23T04:58:19;9.00;99.90
23550;DHT22;11953;49.010;8.608;2022-09-23T05:01:09;8.90;99.90
23550;DHT22;11953;49.010;8.608;2022-09-23T05:03:56;9.00;99.90
23550;DHT22;11953;49.010;8.608;2022-09-23T05:06:46;9.00;99.90
23550;DHT22;11953;49.010;8.608;2022-09-23T05:09:33;9.00;99.90
23550;DHT22;11953;49.010;8.608;2022-09-23T05:12:19;8.60;99.90
23550;DHT22;11953;49.010;8.608;2022-09-23T05:15:08;8.40;99.90
23550;DHT22;11953;49.010;8.608;2022-09-23T05:17:56;8.20;99.90
23550;DHT22;11953;49.010;8.608;2022-09-23T05:20:42;8.00;99.90
23550;DHT22;11953;49.010;8.608;2022-09-23T05:23:29;7.90;99.90
23550;DHT22;11953;49.010;8.608;2022-09-23T05:26:16;7.90;99.90
23550;DHT22;11953;49.010;8.608;2022-09-23T05:29:02;7.90;99.90
23550;DHT22;11953;49.010;8.608;2022-09-23T05:31:50;7.80;99.90
23550;DHT22;11953;49.010;8.608;2022-09-23T05:34:37;8.00;99.90
23550;DHT22;11953;49.010;8.608;2022-09-23T05:37:23;8.00;99.90
23550;DHT22;11953;49.010;8.608;2022-09-23T05:40:10;8.00;99.90
23550;DHT22;11953;49.010;8.608;2022-09-23T05:42:57;8.30;99.90
23550;DHT22;11953;49.010;8.608;2022-09-23T05:45:43;8.60;99.90
23550;DHT22;11953;49.010;8.608;2022-09-23T05:48:33;8.80;99.90
23550;DHT22;11953;49.010;8.608;2022-09-23T05:51:21;9.10;99.90
23550;DHT22;11953;49.010;8.608;2022-09-23T05:54:15;9.30;99.90
23550;DHT22;11953;49.010;8.608;2022-09-23T05:57:01;9.30;99.90
23550;DHT22;11953;49.010;8.608;2022-09-23T05:59:49;9.30;99.90
23550;DHT22;11953;49.010;8.608;2022-09-23T06:02:36;9.50;99.90
23550;DHT22;11953;49.010;8.608;2022-09-23T06:05:24;9.60;99.90
23550;DHT22;11953;49.010;8.608;2022-09-23T06:08:11;9.90;99.90
23550;DHT22;11953;49.010;8.608;2022-09-23T06:11:01;10.20;99.90
23550;DHT22;11953;49.010;8.608;2022-09-23T06:13:54;10.50;99.90
23550;DHT22;11953;49.010;8.608;2022-09-23T06:16:41;10.80;99.90
23550;DHT22;11953;49.010;8.608;2022-09-23T06:19:28;11.00;99.90
23550;DHT22;11953;49.010;8.608;2022-09-23T06:22:15;11.60;99.90
23550;DHT22;11953;49.010;8.608;2022-09-23T06:25:03;12.30;99.90
23550;DHT22;11953;49.010;8.608;2022-09-23T06:27:51;12.90;99.90
23550;DHT22;11953;49.010;8.608;2022-09-23T06:30:39;13.30;99.90
23550;DHT22;11953;49.010;8.608;2022-09-23T06:33:26;13.60;99.90
23550;DHT22;11953;49.010;8.608;2022-09-23T06:36:21;13.60;99.90
23550;DHT22;11953;49.010;8.608;2022-09-23T06:39:27;14.00;99.90
23550;DHT22;11953;49.010;8.608;2022-09-23T06:42:14;14.60;99.90
23550;DHT22;11953;49.010;8.608;2022-09-23T06:45:01;15.00;99.90
23550;DHT22;11953;49.010;8.608;2022-09-23T06:47:47;15.20;99.90
23550;DHT22;11953;49.010;8.608;2022-09-23T06:50:40;15.60;99.90
23550;DHT22;11953;49.010;8.608;2022-09-23T06:53:27;16.10;99.90
23550;DHT22;11953;49.010;8.608;2022-09-23T06:56:17;16.10;99.90
23550;DHT22;11953;49.010;8.608;2022-09-23T06:59:05;16.10;99.90
23550;DHT22;11953;49.010;8.608;2022-09-23T07:01:52;15.70;99.90
23550;DHT22;11953;49.010;8.608;2022-09-23T07:04:39;15.50;99.90
23550;DHT22;11953;49.010;8.608;2022-09-23T07:07:29;15.40;99.90
23550;DHT22;11953;49.010;8.608;2022-09-23T07:10:15;15.30;99.90
23550;DHT22;11953;49.010;8.608;2022-09-23T07:13:04;15.20;99.90
23550;DHT22;11953;49.010;8.608;2022-09-23T07:15:50;15.00;99.90
23550;DHT22;11953;49.010;8.608;2022-09-23T07:18:38;15.10;99.90
23550;DHT22;11953;49.010;8.608;2022-09-23T07:21:25;15.10;99.90
23550;DHT22;11953;49.010;8.608;2022-09-23T07:24:12;14.90;99.90
23550;DHT22;11953;49.010;8.608;2022-09-23T07:26:59;14.70;99.90
23550;DHT22;11953;49.010;8.608;2022-09-23T07:29:48;14.70;99.90
23550;DHT22;11953;49.010;8.608;2022-09-23T07:32:34;14.80;99.90
23550;DHT22;11953;49.010;8.608;2022-09-23T07:35:32;15.10;99.90
23550;DHT22;11953;49.010;8.608;2022-09-23T07:38:19;15.10;99.90
23550;DHT22;11953;49.010;8.608;2022-09-23T07:41:16;15.10;99.90
23550;DHT22;11953;49.010;8.608;2022-09-23T07:44:03;15.40;99.90
23550;DHT22;11953;49.010;8.608;2022-09-23T07:46:51;15.80;99.90
23550;DHT22;11953;49.010;8.608;2022-09-23T07:49:38;15.90;99.90
23550;DHT22;11953;49.010;8.608;2022-09-23T07:52:25;15.90;99.90
23550;DHT22;11953;49.010;8.608;2022-09-23T07:55:12;16.30;99.90
23550;DHT22;11953;49.010;8.608;2022-09-23T07:58:05;16.70;99.90
23550;DHT22;11953;49.010;8.608;2022-09-23T08:00:51;17.00;99.90
23550;DHT22;11953;49.010;8.608;2022-09-23T08:03:39;16.90;99.90
23550;DHT22;11953;49.010;8.608;2022-09-23T08:06:26;17.40;99.90
23550;DHT22;11953;49.010;8.608;2022-09-23T08:09:13;17.80;99.90
23550;DHT22;11953;49.010;8.608;2022-09-23T08:12:00;18.10;99.90
23550;DHT22;11953;49.010;8.608;2022-09-23T08:14:46;18.40;99.90
23550;DHT22;11953;49.010;8.608;2022-09-23T08:17:32;18.50;99.90
23550;DHT22;11953;49.010;8.608;2022-09-23T08:20:20;18.80;99.90
23550;DHT22;11953;49.010;8.608;2022-09-23T08:23:20;18.70;99.90
23550;DHT22;11953;49.010;8.608;2022-09-23T08:26:07;18.60;99.90
23550;DHT22;11953;49.010;8.608;2022-09-23T08:29:05;18.70;99.90
23550;DHT22;11953;49.010;8.608;2022-09-23T08:31:54;19.10;99.90
23550;DHT22;11953;49.010;8.608;2022-09-23T08:34:40;19.10;99.90
23550;DHT22;11953;49.010;8.608;2022-09-23T08:37:28;19.40;99.90
23550;DHT22;11953;49.010;8.608;2022-09-23T08:40:15;19.60;99.90
23550;DHT22;11953;49.010;8.608;2022-09-23T08:43:04;19.60;99.90
23550;DHT22;11953;49.010;8.608;2022-09-23T08:45:52;19.40;99.90
23550;DHT22;11953;49.010;8.608;2022-09-23T08:48:43;19.50;99.90
23550;DHT22;11953;49.010;8.608;2022-09-23T08:51:35;19.70;99.90
23550;DHT22;11953;49.010;8.608;2022-09-23T08:54:27;20.00;99.90
23550;DHT22;11953;49.010;8.608;2022-09-23T08:57:29;20.50;99.90
23550;DHT22;11953;49.010;8.608;2022-09-23T09:00:20;20.70;99.30
23550;DHT22;11953;49.010;8.608;2022-09-23T09:03:19;20.40;98.50
23550;DHT22;11953;49.010;8.608;2022-09-23T09:06:11;20.70;99.00
23550;DHT22;11953;49.010;8.608;2022-09-23T09:09:04;21.20;98.90
23550;DHT22;11953;49.010;8.608;2022-09-23T09:11:55;21.50;98.00
23550;DHT22;11953;49.010;8.608;2022-09-23T09:14:53;21.70;97.50
23550;DHT22;11953;49.010;8.608;2022-09-23T09:17:50;21.80;97.20
23550;DHT22;11953;49.010;8.608;2022-09-23T09:20:49;22.20;96.60
23550;DHT22;11953;49.010;8.608;2022-09-23T09:23:42;22.60;96.40
23550;DHT22;11953;49.010;8.608;2022-09-23T09:26:32;22.60;95.70
23550;DHT22;11953;49.010;8.608;2022-09-23T09:29:25;22.90;95.20
23550;DHT22;11953;49.010;8.608;2022-09-23T09:32:31;23.00;95.90
23550;DHT22;11953;49.010;8.608;2022-09-23T09:35:28;23.10;94.50
23550;DHT22;11953;49.010;8.608;2022-09-23T09:38:20;22.60;94.20
23550;DHT22;11953;49.010;8.608;2022-09-23T09:41:13;22.30;94.40
23550;DHT22;11953;49.010;8.608;2022-09-23T09:44:15;22.30;95.10
23550;DHT22;11953;49.010;8.608;2022-09-23T09:47:24;22.90;94.40
23550;DHT22;11953;49.010;8.608;2022-09-23T09:50:15;22.90;94.60
23550;DHT22;11953;49.010;8.608;2022-09-23T09:53:15;23.20;94.90
23550;DHT22;11953;49.010;8.608;2022-09-23T09:56:05;23.10;92.90
23550;DHT22;11953;49.010;8.608;2022-09-23T09:58:55;23.00;93.60
23550;DHT22;11953;49.010;8.608;2022-09-23T10:01:44;22.90;94.30
23550;DHT22;11953;49.010;8.608;2022-09-23T10:04:34;23.10;94.00
23550;DHT22;11953;49.010;8.608;2022-09-23T10:07:25;23.20;92.70
23550;DHT22;11953;49.010;8.608;2022-09-23T10:10:17;23.40;92.60
23550;DHT22;11953;49.010;8.608;2022-09-23T10:13:19;23.60;90.90
23550;DHT22;11953;49.010;8.608;2022-09-23T10:16:06;23.50;91.20
23550;DHT22;11953;49.010;8.608;2022-09-23T10:18:54;23.70;92.70
23550;DHT22;11953;49.010;8.608;2022-09-23T10:21:42;23.90;91.40
23550;DHT22;11953;49.010;8.608;2022-09-23T10:24:30;23.60;91.60
23550;DHT22;11953;49.010;8.608;2022-09-23T10:27:26;23.60;91.60
23550;DHT22;11953;49.010;8.608;2022-09-23T10:30:20;23.80;92.00
23550;DHT22;11953;49.010;8.608;2022-09-23T10:33:25;23.50;93.10
23550;DHT22;11953;49.010;8.608;2022-09-23T10:36:14;23.40;92.40
23550;DHT22;11953;49.010;8.608;2022-09-23T10:39:03;23.10;92.70
23550;DHT22;11953;49.010;8.608;2022-09-23T10:42:16;23.00;92.50
23550;DHT22;11953;49.010;8.608;2022-09-23T10:45:26;23.20;92.90
23550;DHT22;11953;49.010;8.608;2022-09-23T10:48:39;23.40;92.60
23550;DHT22;11953;49.010;8.608;2022-09-23T10:51:33;23.30;92.40
23550;DHT22;11953;49.010;8.608;2022-09-23T10:54:30;23.70;93.20
23550;DHT22;11953;49.010;8.608;2022-09-23T10:57:27;23.80;92.80
23550;DHT22;11953;49.010;8.608;2022-09-23T11:00:31;24.00;92.20
23550;DHT22;11953;49.010;8.608;2022-09-23T11:03:44;24.10;91.10
23550;DHT22;11953;49.010;8.608;2022-09-23T11:06:46;23.90;91.90
23550;DHT22;11953;49.010;8.608;2022-09-23T11:09:47;23.90;91.60
23550;DHT22;11953;49.010;8.608;2022-09-23T11:12:44;23.70;92.80
23550;DHT22;11953;49.010;8.608;2022-09-23T11:15:44;23.90;92.10
23550;DHT22;11953;49.010;8.608;2022-09-23T11:18:47;24.00;92.40
23550;DHT22;11953;49.010;8.608;2022-09-23T11:21:45;24.00;91.70
23550;DHT22;11953;49.010;8.608;2022-09-23T11:24:51;23.90;91.90
23550;DHT22;11953;49.010;8.608;2022-09-23T11:27:58;23.60;92.20
23550;DHT22;11953;49.010;8.608;2022-09-23T11:30:52;23.60;92.70
23550;DHT22;11953;49.010;8.608;2022-09-23T11:33:54;23.60;92.40
23550;DHT22;11953;49.010;8.608;2022-09-23T11:36:49;23.70;92.30
23550;DHT22;11953;49.010;8.608;2022-09-23T11:39:42;23.30;92.40
23550;DHT22;11953;49.010;8.608;2022-09-23T11:42:35;23.20;92.40
23550;DHT22;11953;49.010;8.608;2022-09-23T11:45:28;22.80;92.90
23550;DHT22;11953;49.010;8.608;2022-09-23T11:48:17;22.50;93.00
23550;DHT22;11953;49.010;8.608;2022-09-23T11:51:10;22.80;93.60
23550;DHT22;11953;49.010;8.608;2022-09-23T11:54:01;22.90;94.50
23550;DHT22;11953;49.010;8.608;2022-09-23T11:56:52;23.10;93.20
23550;DHT22;11953;49.010;8.608;2022-09-23T11:59:43;23.10;94.00
23550;DHT22;11953;49.010;8.608;2022-09-23T12:02:49;23.10;94.30
23550;DHT22;11953;49.010;8.608;2022-09-23T12:05:56;23.30;93.80
23550;DHT22;11953;49.010;8.608;2022-09-23T12:08:43;23.40;94.10
23550;DHT22;11953;49.010;8.608;2022-09-23T12:11:39;23.20;94.20
23550;DHT22;11953;49.010;8.608;2022-09-23T12:14:33;23.20;94.50
23550;DHT22;11953;49.010;8.608;2022-09-23T12:17:36;23.50;93.60
23550;DHT22;11953;49.010;8.608;2022-09-23T12:20:42;23.30;93.70
23550;DHT22;11953;49.010;8.608;2022-09-23T12:23:46;23.20;93.60
23550;DHT22;11953;49.010;8.608;2022-09-23T12:26:34;23.00;93.50
23550;DHT22;11953;49.010;8.608;2022-09-23T12:29:23;22.90;94.50
23550;DHT22;11953;49.010;8.608;2022-09-23T12:32:16;23.10;94.10
23550;DHT22;11953;49.010;8.608;2022-09-23T12:35:05;22.90;93.30
23550;DHT22;11953;49.010;8.608;2022-09-23T12:37:53;22.80;93.40
23550;DHT22;11953;49.010;8.608;2022-09-23T12:40:40;22.90;93.20
23550;DHT22;11953;49.010;8.608;2022-09-23T12:43:30;23.10;93.50
23550;DHT22;11953;49.010;8.608;2022-09-23T12:46:18;23.00;92.70
23550;DHT22;11953;49.010;8.608;2022-09-23T12:49:21;23.10;92.40
23550;DHT22;11953;49.010;8.608;2022-09-23T12:52:23;22.90;93.90
23550;DHT22;11953;49.010;8.608;2022-09-23T12:55:43;22.80;93.40
23550;DHT22;11953;49.010;8.608;2022-09-23T12:58:58;22.80;92.90
23550;DHT22;11953;49.010;8.608;2022-09-23T13:01:45;22.60;93.40
23550;DHT22;11953;49.010;8.608;2022-09-23T13:04:34;22.70;93.40
23550;DHT22;11953;49.010;8.608;2022-09-23T13:07:48;22.60;93.50
23550;DHT22;11953;49.010;8.608;2022-09-23T13:10:41;22.30;92.80
23550;DHT22;11953;49.010;8.608;2022-09-23T13:13:31;22.20;93.40
23550;DHT22;11953;49.010;8.608;2022-09-23T13:16:21;22.10;93.20
23550;DHT22;11953;49.010;8.608;2022-09-23T13:19:42;22.10;94.20
23550;DHT22;11953;49.010;8.608;2022-09-23T13:22:40;21.90;93.40
23550;DHT22;11953;49.010;8.608;2022-09-23T13:25:30;21.50;94.40
23550;DHT22;11953;49.010;8.608;2022-09-23T13:28:26;21.40;94.60
23550;DHT22;11953;49.010;8.608;2022-09-23T13:31:15;21.40;95.20
23550;DHT22;11953;49.010;8.608;2022-09-23T13:34:04;21.30;96.20
23550;DHT22;11953;49.010;8.608;2022-09-23T13:36:52;21.30;96.00
23550;DHT22;11953;49.010;8.608;2022-09-23T13:39:39;21.20;96.00
23550;DHT22;11953;49.010;8.608;2022-09-23T13:42:28;21.10;96.10
23550;DHT22;11953;49.010;8.608;2022-09-23T13:45:17;21.10;96.40
23550;DHT22;11953;49.010;8.608;2022-09-23T13:48:07;21.00;96.40
23550;DHT22;11953;49.010;8.608;2022-09-23T13:50:55;21.10;96.50
23550;DHT22;11953;49.010;8.608;2022-09-23T13:53:41;21.00;95.80
23550;DHT22;11953;49.010;8.608;2022-09-23T13:56:29;21.00;96.00
23550;DHT22;11953;49.010;8.608;2022-09-23T13:59:24;21.00;95.80
23550;DHT22;11953;49.010;8.608;2022-09-23T14:02:12;20.90;96.20
23550;DHT22;11953;49.010;8.608;2022-09-23T14:05:09;20.80;96.70
23550;DHT22;11953;49.010;8.608;2022-09-23T14:07:56;20.90;96.50
23550;DHT22;11953;49.010;8.608;2022-09-23T14:10:43;20.70;96.90
23550;DHT22;11953;49.010;8.608;2022-09-23T14:13:34;20.80;96.70
23550;DHT22;11953;49.010;8.608;2022-09-23T14:16:25;20.80;97.00
23550;DHT22;11953;49.010;8.608;2022-09-23T14:19:16;20.80;96.30
23550;DHT22;11953;49.010;8.608;2022-09-23T14:22:04;20.80;96.20
23550;DHT22;11953;49.010;8.608;2022-09-23T14:24:57;20.90;97.20
23550;DHT22;11953;49.010;8.608;2022-09-23T14:27:44;20.90;98.10
23550;DHT22;11953;49.010;8.608;2022-09-23T14:30:31;20.90;98.10
23550;DHT22;11953;49.010;8.608;2022-09-23T14:33:24;20.80;98.10
23550;DHT22;11953;49.010;8.608;2022-09-23T14:36:13;20.60;97.30
23550;DHT22;11953;49.010;8.608;2022-09-23T14:39:15;20.70;97.70
23550;DHT22;11953;49.010;8.608;2022-09-23T14:42:06;20.70;97.40
23550;DHT22;11953;49.010;8.608;2022-09-23T14:44:52;20.50;98.70
23550;DHT22;11953;49.010;8.608;2022-09-23T14:47:42;20.40;98.10
23550;DHT22;11953;49.010;8.608;2022-09-23T14:50:31;20.30;98.10
23550;DHT22;11953;49.010;8.608;2022-09-23T14:53:35;20.20;98.50
23550;DHT22;11953;49.010;8.608;2022-09-23T14:56:22;20.20;99.60
23550;DHT22;11953;49.010;8.608;2022-09-23T14:59:23;20.20;99.10
23550;DHT22;11953;49.010;8.608;2022-09-23T15:02:27;20.20;99.30
23550;DHT22;11953;49.010;8.608;2022-09-23T15:05:17;20.20;99.40
23550;DHT22;11953;49.010;8.608;2022-09-23T15:08:06;20.20;99.20
23550;DHT22;11953;49.010;8.608;2022-09-23T15:10:55;20.10;99.00
23550;DHT22;11953;49.010;8.608;2022-09-23T15:13:46;20.10;99.90
23550;DHT22;11953;49.010;8.608;2022-09-23T15:16:34;20.00;99.70
23550;DHT22;11953;49.010;8.608;2022-09-23T15:19:22;19.90;99.90
23550;DHT22;11953;49.010;8.608;2022-09-23T15:22:09;19.90;99.90
23550;DHT22;11953;49.010;8.608;2022-09-23T15:25:14;19.90;99.90
23550;DHT22;11953;49.010;8.608;2022-09-23T15:28:12;19.80;99.90
23550;DHT22;11953;49.010;8.608;2022-09-23T15:31:01;19.70;99.90
23550;DHT22;11953;49.010;8.608;2022-09-23T15:33:50;19.70;99.90
23550;DHT22;11953;49.010;8.608;2022-09-23T15:36:36;19.70;99.90
23550;DHT22;11953;49.010;8.608;2022-09-23T15:39:24;19.70;99.90
23550;DHT22;11953;49.010;8.608;2022-09-23T15:42:22;19.70;99.90
23550;DHT22;11953;49.010;8.608;2022-09-23T15:45:10;19.80;99.90
23550;DHT22;11953;49.010;8.608;2022-09-23T15:48:00;19.80;99.90
23550;DHT22;11953;49.010;8.608;2022-09-23T15:50:49;19.70;99.90
23550;DHT22;11953;49.010;8.608;2022-09-23T15:53:35;19.60;99.90
23550;DHT22;11953;49.010;8.608;2022-09-23T15:56:23;19.60;99.90
23550;DHT22;11953;49.010;8.608;2022-09-23T15:59:12;19.50;99.90
23550;DHT22;11953;49.010;8.608;2022-09-23T16:02:01;19.30;99.90
23550;DHT22;11953;49.010;8.608;2022-09-23T16:04:50;19.30;99.90
23550;DHT22;11953;49.010;8.608;2022-09-23T16:07:36;19.20;99.90
23550;DHT22;11953;49.010;8.608;2022-09-23T16:10:22;19.10;99.90
23550;DHT22;11953;49.010;8.608;2022-09-23T16:13:11;19.20;99.90
23550;DHT22;11953;49.010;8.608;2022-09-23T16:16:00;19.10;99.90
23550;DHT22;11953;49.010;8.608;2022-09-23T16:18:47;19.10;99.90
23550;DHT22;11953;49.010;8.608;2022-09-23T16:21:34;18.90;99.90
23550;DHT22;11953;49.010;8.608;2022-09-23T16:24:20;18.90;99.90
23550;DHT22;11953;49.010;8.608;2022-09-23T16:27:16;18.80;99.90
23550;DHT22;11953;49.010;8.608;2022-09-23T16:30:04;18.70;99.90
23550;DHT22;11953;49.010;8.608;2022-09-23T16:32:53;18.60;99.90
23550;DHT22;11953;49.010;8.608;2022-09-23T16:35:39;18.60;99.90
23550;DHT22;11953;49.010;8.608;2022-09-23T16:38:26;18.50;99.90
23550;DHT22;11953;49.010;8.608;2022-09-23T16:41:13;18.60;99.90
23550;DHT22;11953;49.010;8.608;2022-09-23T16:44:02;18.50;99.90
23550;DHT22;11953;49.010;8.608;2022-09-23T16:46:50;18.50;99.90
23550;DHT22;11953;49.010;8.608;2022-09-23T16:49:38;18.50;99.90
23550;DHT22;11953;49.010;8.608;2022-09-23T16:52:24;18.40;99.90
23550;DHT22;11953;49.010;8.608;2022-09-23T16:55:14;18.40;99.90
23550;DHT22;11953;49.010;8.608;2022-09-23T16:58:01;18.20;99.90
23550;DHT22;11953;49.010;8.608;2022-09-23T17:00:48;18.10;99.90
23550;DHT22;11953;49.010;8.608;2022-09-23T17:03:52;17.90;99.90
23550;DHT22;11953;49.010;8.608;2022-09-23T17:06:43;17.90;99.90
23550;DHT22;11953;49.010;8.608;2022-09-23T17:09:31;17.80;99.90
23550;DHT22;11953;49.010;8.608;2022-09-23T17:12:22;17.70;99.90
23550;DHT22;11953;49.010;8.608;2022-09-23T17:15:11;17.60;99.90
23550;DHT22;11953;49.010;8.608;2022-09-23T17:17:58;17.50;99.90
23550;DHT22;11953;49.010;8.608;2022-09-23T17:20:55;17.30;99.90
23550;DHT22;11953;49.010;8.608;2022-09-23T17:23:44;17.30;99.90
23550;DHT22;11953;49.010;8.608;2022-09-23T17:26:31;17.30;99.90
23550;DHT22;11953;49.010;8.608;2022-09-23T17:29:17;17.00;99.90
23550;DHT22;11953;49.010;8.608;2022-09-23T17:32:04;16.50;99.90
23550;DHT22;11953;49.010;8.608;2022-09-23T17:34:52;16.30;99.90
23550;DHT22;11953;49.010;8.608;2022-09-23T17:37:39;16.20;99.90
23550;DHT22;11953;49.010;8.608;2022-09-23T17:40:27;16.10;99.90
23550;DHT22;11953;49.010;8.608;2022-09-23T17:43:13;16.00;99.90
23550;DHT22;11953;49.010;8.608;2022-09-23T17:46:02;15.80;99.90
23550;DHT22;11953;49.010;8.608;2022-09-23T17:48:52;15.60;99.90
23550;DHT22;11953;49.010;8.608;2022-09-23T17:51:40;15.50;99.90
23550;DHT22;11953;49.010;8.608;2022-09-23T17:54:26;15.50;99.90
23550;DHT22;11953;49.010;8.608;2022-09-23T17:57:16;15.60;99.90
23550;DHT22;11953;49.010;8.608;2022-09-23T18:00:03;15.60;99.90
23550;DHT22;11953;49.010;8.608;2022-09-23T18:02:56;15.60;99.90
23550;DHT22;11953;49.010;8.608;2022-09-23T18:05:42;15.50;99.90
23550;DHT22;11953;49.010;8.608;2022-09-23T18:08:29;15.30;99.90